sensor_id;sensor_type;location;lat;lon;timestamp;P1;durP1;ratioP1;P2;durP2;ratioP2
53925;SDS011;39836;52.754;6.866;2022-10-16T00:01:13;7.45;;;3.00;;
53925;SDS011;39836;52.754;6.866;2022-10-16T00:03:40;10.85;;;2.97;;
53925;SDS011;39836;52.754;6.866;2022-10-16T00:06:08;8.32;;;3.25;;
53925;SDS011;39836;52.754;6.866;2022-10-16T00:08:35;10.40;;;2.90;;
53925;SDS011;39836;52.754;6.866;2022-10-16T00:11:06;10.05;;;2.88;;
53925;SDS011;39836;52.754;6.866;2022-10-16T00:13:40;7.22;;;3.78;;
53925;SDS011;39836;52.754;6.866;2022-10-16T00:16:08;10.85;;;3.63;;
53925;SDS011;39836;52.754;6.866;2022-10-16T00:18:35;7.57;;;3.00;;
53925;SDS011;39836;52.754;6.866;2022-10-16T00:21:06;11.57;;;4.10;;
53925;SDS011;39836;52.754;6.866;2022-10-16T00:23:33;14.43;;;3.70;;
53925;SDS011;39836;52.754;6.866;2022-10-16T00:26:01;6.93;;;3.20;;
53925;SDS011;39836;52.754;6.866;2022-10-16T00:28:29;9.18;;;3.22;;
53925;SDS011;39836;52.754;6.866;2022-10-16T00:30:55;10.63;;;3.30;;
53925;SDS011;39836;52.754;6.866;2022-10-16T00:33:20;9.75;;;3.42;;
53925;SDS011;39836;52.754;6.866;2022-10-16T00:35:47;8.35;;;3.78;;
53925;SDS011;39836;52.754;6.866;2022-10-16T00:38:13;13.02;;;3.58;;
53925;SDS011;39836;52.754;6.866;2022-10-16T00:40:38;8.90;;;3.33;;
53925;SDS011;39836;52.754;6.866;2022-10-16T00:43:11;6.53;;;3.22;;
53925;SDS011;39836;52.754;6.866;2022-10-16T00:45:56;9.82;;;3.40;;
53925;SDS011;39836;52.754;6.866;2022-10-16T00:48:21;7.35;;;3.03;;
53925;SDS011;39836;52.754;6.866;2022-10-16T00:50:47;9.75;;;3.10;;
53925;SDS011;39836;52.754;6.866;2022-10-16T00:53:13;9.80;;;3.10;;
53925;SDS011;39836;52.754;6.866;2022-10-16T00:55:39;7.05;;;3.00;;
53925;SDS011;39836;52.754;6.866;2022-10-16T00:58:05;6.55;;;2.95;;
53925;SDS011;39836;52.754;6.866;2022-10-16T01:00:31;9.40;;;2.75;;
53925;SDS011;39836;52.754;6.866;2022-10-16T01:03:00;8.60;;;2.97;;
53925;SDS011;39836;52.754;6.866;2022-10-16T01:05:33;8.65;;;2.67;;
53925;SDS011;39836;52.754;6.866;2022-10-16T01:15:38;11.23;;;3.63;;
53925;SDS011;39836;52.754;6.866;2022-10-16T01:21:27;8.65;;;3.42;;
53925;SDS011;39836;52.754;6.866;2022-10-16T01:35:13;9.13;;;3.25;;
53925;SDS011;39836;52.754;6.866;2022-10-16T01:37:51;6.28;;;3.15;;
53925;SDS011;39836;52.754;6.866;2022-10-16T01:40:26;10.85;;;3.80;;
53925;SDS011;39836;52.754;6.866;2022-10-16T01:42:53;8.98;;;3.55;;
53925;SDS011;39836;52.754;6.866;2022-10-16T01:45:24;9.27;;;2.92;;
53925;SDS011;39836;52.754;6.866;2022-10-16T01:47:53;10.05;;;3.50;;
53925;SDS011;39836;52.754;6.866;2022-10-16T01:50:19;7.90;;;3.25;;
53925;SDS011;39836;52.754;6.866;2022-10-16T01:52:47;6.65;;;2.75;;
53925;SDS011;39836;52.754;6.866;2022-10-16T01:55:18;8.30;;;3.47;;
53925;SDS011;39836;52.754;6.866;2022-10-16T01:57:49;7.38;;;3.38;;
53925;SDS011;39836;52.754;6.866;2022-10-16T02:00:17;7.80;;;3.00;;
53925;SDS011;39836;52.754;6.866;2022-10-16T02:02:45;9.20;;;3.45;;
53925;SDS011;39836;52.754;6.866;2022-10-16T02:07:56;7.40;;;3.13;;
53925;SDS011;39836;52.754;6.866;2022-10-16T02:10:22;7.32;;;3.55;;
53925;SDS011;39836;52.754;6.866;2022-10-16T02:12:52;5.32;;;2.95;;
53925;SDS011;39836;52.754;6.866;2022-10-16T02:15:23;8.85;;;3.38;;
53925;SDS011;39836;52.754;6.866;2022-10-16T02:17:49;7.00;;;2.97;;
53925;SDS011;39836;52.754;6.866;2022-10-16T02:20:15;8.13;;;2.95;;
53925;SDS011;39836;52.754;6.866;2022-10-16T02:22:43;11.05;;;2.95;;
53925;SDS011;39836;52.754;6.866;2022-10-16T02:25:21;6.60;;;2.83;;
53925;SDS011;39836;52.754;6.866;2022-10-16T02:27:55;10.57;;;3.25;;
53925;SDS011;39836;52.754;6.866;2022-10-16T02:30:32;9.15;;;3.60;;
53925;SDS011;39836;52.754;6.866;2022-10-16T02:33:07;5.68;;;3.10;;
53925;SDS011;39836;52.754;6.866;2022-10-16T02:35:34;7.03;;;3.50;;
53925;SDS011;39836;52.754;6.866;2022-10-16T02:38:01;7.25;;;3.00;;
53925;SDS011;39836;52.754;6.866;2022-10-16T02:40:27;7.53;;;2.90;;
53925;SDS011;39836;52.754;6.866;2022-10-16T02:42:53;6.82;;;2.95;;
53925;SDS011;39836;52.754;6.866;2022-10-16T02:45:20;9.48;;;3.45;;
53925;SDS011;39836;52.754;6.866;2022-10-16T02:47:46;9.10;;;3.30;;
53925;SDS011;39836;52.754;6.866;2022-10-16T02:50:13;6.07;;;2.85;;
53925;SDS011;39836;52.754;6.866;2022-10-16T02:52:39;7.68;;;3.05;;
53925;SDS011;39836;52.754;6.866;2022-10-16T02:55:05;6.50;;;3.13;;
53925;SDS011;39836;52.754;6.866;2022-10-16T02:57:31;11.60;;;2.70;;
53925;SDS011;39836;52.754;6.866;2022-10-16T02:59:57;7.22;;;3.20;;
53925;SDS011;39836;52.754;6.866;2022-10-16T03:02:22;11.05;;;3.53;;
53925;SDS011;39836;52.754;6.866;2022-10-16T03:04:48;8.82;;;3.00;;
53925;SDS011;39836;52.754;6.866;2022-10-16T03:07:14;7.20;;;3.00;;
53925;SDS011;39836;52.754;6.866;2022-10-16T03:09:39;5.82;;;3.33;;
53925;SDS011;39836;52.754;6.866;2022-10-16T03:12:05;7.00;;;3.00;;
53925;SDS011;39836;52.754;6.866;2022-10-16T03:14:31;7.15;;;3.15;;
53925;SDS011;39836;52.754;6.866;2022-10-16T03:16:57;9.45;;;3.22;;
53925;SDS011;39836;52.754;6.866;2022-10-16T03:19:23;7.07;;;3.20;;
53925;SDS011;39836;52.754;6.866;2022-10-16T03:21:49;7.18;;;3.28;;
53925;SDS011;39836;52.754;6.866;2022-10-16T03:24:14;6.10;;;3.20;;
53925;SDS011;39836;52.754;6.866;2022-10-16T03:26:40;7.82;;;3.10;;
53925;SDS011;39836;52.754;6.866;2022-10-16T03:29:06;6.13;;;3.03;;
53925;SDS011;39836;52.754;6.866;2022-10-16T03:31:32;7.03;;;2.97;;
53925;SDS011;39836;52.754;6.866;2022-10-16T03:33:58;9.43;;;3.20;;
53925;SDS011;39836;52.754;6.866;2022-10-16T03:36:24;6.50;;;3.58;;
53925;SDS011;39836;52.754;6.866;2022-10-16T03:38:49;7.40;;;3.65;;
53925;SDS011;39836;52.754;6.866;2022-10-16T03:41:15;7.55;;;3.80;;
53925;SDS011;39836;52.754;6.866;2022-10-16T03:43:41;8.43;;;3.25;;
53925;SDS011;39836;52.754;6.866;2022-10-16T03:46:07;6.97;;;3.65;;
53925;SDS011;39836;52.754;6.866;2022-10-16T03:48:33;6.55;;;4.22;;
53925;SDS011;39836;52.754;6.866;2022-10-16T03:50:58;5.55;;;3.70;;
53925;SDS011;39836;52.754;6.866;2022-10-16T03:53:24;7.53;;;3.92;;
53925;SDS011;39836;52.754;6.866;2022-10-16T03:55:50;9.75;;;4.70;;
53925;SDS011;39836;52.754;6.866;2022-10-16T03:58:16;6.85;;;4.10;;
53925;SDS011;39836;52.754;6.866;2022-10-16T04:00:43;7.32;;;4.07;;
53925;SDS011;39836;52.754;6.866;2022-10-16T04:03:09;10.35;;;4.75;;
53925;SDS011;39836;52.754;6.866;2022-10-16T04:05:35;5.22;;;3.42;;
53925;SDS011;39836;52.754;6.866;2022-10-16T04:08:01;6.50;;;3.95;;
53925;SDS011;39836;52.754;6.866;2022-10-16T04:10:26;11.65;;;5.25;;
53925;SDS011;39836;52.754;6.866;2022-10-16T04:12:52;6.90;;;3.80;;
53925;SDS011;39836;52.754;6.866;2022-10-16T04:15:21;8.18;;;4.85;;
53925;SDS011;39836;52.754;6.866;2022-10-16T04:17:50;7.50;;;4.38;;
53925;SDS011;39836;52.754;6.866;2022-10-16T04:20:16;7.43;;;4.40;;
53925;SDS011;39836;52.754;6.866;2022-10-16T04:22:42;8.35;;;4.03;;
53925;SDS011;39836;52.754;6.866;2022-10-16T04:25:08;7.60;;;4.40;;
53925;SDS011;39836;52.754;6.866;2022-10-16T04:27:34;8.80;;;4.82;;
53925;SDS011;39836;52.754;6.866;2022-10-16T04:30:00;8.48;;;4.95;;
53925;SDS011;39836;52.754;6.866;2022-10-16T04:32:26;9.35;;;4.78;;
53925;SDS011;39836;52.754;6.866;2022-10-16T04:34:52;7.38;;;4.50;;
53925;SDS011;39836;52.754;6.866;2022-10-16T04:37:18;6.45;;;4.30;;
53925;SDS011;39836;52.754;6.866;2022-10-16T04:39:44;10.25;;;4.35;;
53925;SDS011;39836;52.754;6.866;2022-10-16T04:42:10;14.60;;;4.88;;
53925;SDS011;39836;52.754;6.866;2022-10-16T04:44:36;10.13;;;4.57;;
53925;SDS011;39836;52.754;6.866;2022-10-16T04:47:01;10.07;;;4.50;;
53925;SDS011;39836;52.754;6.866;2022-10-16T04:49:27;9.68;;;5.13;;
53925;SDS011;39836;52.754;6.866;2022-10-16T04:51:53;7.75;;;5.00;;
53925;SDS011;39836;52.754;6.866;2022-10-16T04:54:18;8.10;;;4.80;;
53925;SDS011;39836;52.754;6.866;2022-10-16T04:56:44;7.65;;;4.38;;
53925;SDS011;39836;52.754;6.866;2022-10-16T04:59:13;10.88;;;4.68;;
53925;SDS011;39836;52.754;6.866;2022-10-16T05:01:39;8.15;;;4.55;;
53925;SDS011;39836;52.754;6.866;2022-10-16T05:04:05;8.43;;;4.68;;
53925;SDS011;39836;52.754;6.866;2022-10-16T05:06:31;11.32;;;5.20;;
53925;SDS011;39836;52.754;6.866;2022-10-16T05:08:57;11.10;;;5.20;;
53925;SDS011;39836;52.754;6.866;2022-10-16T05:11:22;8.60;;;5.30;;
53925;SDS011;39836;52.754;6.866;2022-10-16T05:13:48;10.98;;;4.97;;
53925;SDS011;39836;52.754;6.866;2022-10-16T05:16:14;10.98;;;4.90;;
53925;SDS011;39836;52.754;6.866;2022-10-16T05:18:39;8.15;;;4.70;;
53925;SDS011;39836;52.754;6.866;2022-10-16T05:21:05;10.05;;;4.93;;
53925;SDS011;39836;52.754;6.866;2022-10-16T05:23:31;9.43;;;5.03;;
53925;SDS011;39836;52.754;6.866;2022-10-16T05:25:57;7.50;;;4.82;;
53925;SDS011;39836;52.754;6.866;2022-10-16T05:28:25;11.85;;;4.90;;
53925;SDS011;39836;52.754;6.866;2022-10-16T05:30:51;7.55;;;5.00;;
53925;SDS011;39836;52.754;6.866;2022-10-16T05:33:19;7.05;;;4.38;;
53925;SDS011;39836;52.754;6.866;2022-10-16T05:35:46;8.10;;;4.13;;
53925;SDS011;39836;52.754;6.866;2022-10-16T05:38:11;7.00;;;4.50;;
53925;SDS011;39836;52.754;6.866;2022-10-16T05:40:37;8.30;;;4.40;;
53925;SDS011;39836;52.754;6.866;2022-10-16T05:43:03;10.27;;;4.45;;
53925;SDS011;39836;52.754;6.866;2022-10-16T05:45:28;8.95;;;4.10;;
53925;SDS011;39836;52.754;6.866;2022-10-16T05:47:54;7.50;;;4.60;;
53925;SDS011;39836;52.754;6.866;2022-10-16T05:50:20;8.82;;;4.05;;
53925;SDS011;39836;52.754;6.866;2022-10-16T05:52:46;7.40;;;3.95;;
53925;SDS011;39836;52.754;6.866;2022-10-16T05:55:11;10.30;;;3.72;;
53925;SDS011;39836;52.754;6.866;2022-10-16T05:57:37;7.43;;;3.65;;
53925;SDS011;39836;52.754;6.866;2022-10-16T06:00:03;5.78;;;3.53;;
53925;SDS011;39836;52.754;6.866;2022-10-16T06:02:30;6.88;;;4.13;;
53925;SDS011;39836;52.754;6.866;2022-10-16T06:04:55;6.88;;;3.75;;
53925;SDS011;39836;52.754;6.866;2022-10-16T06:07:21;8.25;;;4.15;;
53925;SDS011;39836;52.754;6.866;2022-10-16T06:09:51;6.00;;;4.07;;
53925;SDS011;39836;52.754;6.866;2022-10-16T06:12:17;5.95;;;3.53;;
53925;SDS011;39836;52.754;6.866;2022-10-16T06:14:44;8.68;;;4.47;;
53925;SDS011;39836;52.754;6.866;2022-10-16T06:17:12;8.10;;;3.75;;
53925;SDS011;39836;52.754;6.866;2022-10-16T06:19:38;11.77;;;4.53;;
53925;SDS011;39836;52.754;6.866;2022-10-16T06:22:04;5.97;;;3.50;;
53925;SDS011;39836;52.754;6.866;2022-10-16T06:24:30;6.43;;;3.88;;
53925;SDS011;39836;52.754;6.866;2022-10-16T06:26:56;7.88;;;3.75;;
53925;SDS011;39836;52.754;6.866;2022-10-16T06:29:21;7.00;;;3.58;;
53925;SDS011;39836;52.754;6.866;2022-10-16T06:31:47;6.53;;;3.42;;
53925;SDS011;39836;52.754;6.866;2022-10-16T06:34:13;7.70;;;4.45;;
53925;SDS011;39836;52.754;6.866;2022-10-16T06:36:38;7.32;;;3.50;;
53925;SDS011;39836;52.754;6.866;2022-10-16T06:39:05;7.60;;;3.25;;
53925;SDS011;39836;52.754;6.866;2022-10-16T06:41:32;7.15;;;3.83;;
53925;SDS011;39836;52.754;6.866;2022-10-16T06:43:58;8.45;;;4.32;;
53925;SDS011;39836;52.754;6.866;2022-10-16T06:46:24;6.82;;;3.45;;
53925;SDS011;39836;52.754;6.866;2022-10-16T06:48:51;10.82;;;3.83;;
53925;SDS011;39836;52.754;6.866;2022-10-16T06:51:18;6.00;;;3.53;;
53925;SDS011;39836;52.754;6.866;2022-10-16T06:53:46;7.10;;;3.58;;
53925;SDS011;39836;52.754;6.866;2022-10-16T06:56:18;8.07;;;3.70;;
53925;SDS011;39836;52.754;6.866;2022-10-16T06:58:44;6.50;;;3.65;;
53925;SDS011;39836;52.754;6.866;2022-10-16T07:01:10;7.07;;;3.58;;
53925;SDS011;39836;52.754;6.866;2022-10-16T07:03:37;8.38;;;3.60;;
53925;SDS011;39836;52.754;6.866;2022-10-16T07:06:05;8.07;;;3.78;;
53925;SDS011;39836;52.754;6.866;2022-10-16T07:08:32;8.00;;;3.63;;
53925;SDS011;39836;52.754;6.866;2022-10-16T07:11:03;9.45;;;3.42;;
53925;SDS011;39836;52.754;6.866;2022-10-16T07:13:32;5.45;;;3.42;;
53925;SDS011;39836;52.754;6.866;2022-10-16T07:16:03;8.93;;;3.42;;
53925;SDS011;39836;52.754;6.866;2022-10-16T07:18:30;8.73;;;3.63;;
53925;SDS011;39836;52.754;6.866;2022-10-16T07:21:02;9.65;;;3.40;;
53925;SDS011;39836;52.754;6.866;2022-10-16T07:23:29;6.25;;;3.17;;
53925;SDS011;39836;52.754;6.866;2022-10-16T07:25:55;6.05;;;3.20;;
53925;SDS011;39836;52.754;6.866;2022-10-16T07:28:21;10.18;;;4.00;;
53925;SDS011;39836;52.754;6.866;2022-10-16T07:30:47;7.18;;;3.30;;
53925;SDS011;39836;52.754;6.866;2022-10-16T07:33:12;7.55;;;4.00;;
53925;SDS011;39836;52.754;6.866;2022-10-16T07:35:46;6.03;;;3.00;;
53925;SDS011;39836;52.754;6.866;2022-10-16T07:38:21;10.88;;;3.53;;
53925;SDS011;39836;52.754;6.866;2022-10-16T07:40:47;6.28;;;3.35;;
53925;SDS011;39836;52.754;6.866;2022-10-16T07:43:13;11.10;;;3.70;;
53925;SDS011;39836;52.754;6.866;2022-10-16T07:45:48;7.07;;;3.45;;
53925;SDS011;39836;52.754;6.866;2022-10-16T07:48:15;5.88;;;3.13;;
53925;SDS011;39836;52.754;6.866;2022-10-16T07:50:42;6.07;;;3.15;;
53925;SDS011;39836;52.754;6.866;2022-10-16T07:53:08;7.07;;;3.35;;
53925;SDS011;39836;52.754;6.866;2022-10-16T07:55:35;8.00;;;3.20;;
53925;SDS011;39836;52.754;6.866;2022-10-16T07:58:01;7.88;;;3.55;;
53925;SDS011;39836;52.754;6.866;2022-10-16T08:00:26;8.50;;;3.30;;
53925;SDS011;39836;52.754;6.866;2022-10-16T08:02:52;7.30;;;2.90;;
53925;SDS011;39836;52.754;6.866;2022-10-16T08:05:18;8.63;;;3.30;;
53925;SDS011;39836;52.754;6.866;2022-10-16T08:07:48;6.32;;;2.75;;
53925;SDS011;39836;52.754;6.866;2022-10-16T08:10:15;6.25;;;2.63;;
53925;SDS011;39836;52.754;6.866;2022-10-16T08:12:42;8.77;;;3.03;;
53925;SDS011;39836;52.754;6.866;2022-10-16T08:15:08;9.68;;;4.05;;
53925;SDS011;39836;52.754;6.866;2022-10-16T08:17:34;8.70;;;3.00;;
53925;SDS011;39836;52.754;6.866;2022-10-16T08:20:00;8.35;;;2.75;;
53925;SDS011;39836;52.754;6.866;2022-10-16T08:22:26;4.07;;;2.42;;
53925;SDS011;39836;52.754;6.866;2022-10-16T08:24:52;7.10;;;3.08;;
53925;SDS011;39836;52.754;6.866;2022-10-16T08:27:18;4.82;;;2.40;;
53925;SDS011;39836;52.754;6.866;2022-10-16T08:29:44;5.28;;;2.47;;
53925;SDS011;39836;52.754;6.866;2022-10-16T08:32:09;9.57;;;3.30;;
53925;SDS011;39836;52.754;6.866;2022-10-16T08:34:35;4.97;;;2.22;;
53925;SDS011;39836;52.754;6.866;2022-10-16T08:37:01;7.13;;;2.55;;
53925;SDS011;39836;52.754;6.866;2022-10-16T08:39:27;9.25;;;2.53;;
53925;SDS011;39836;52.754;6.866;2022-10-16T08:41:59;6.10;;;2.63;;
53925;SDS011;39836;52.754;6.866;2022-10-16T08:50:26;8.88;;;2.92;;
53925;SDS011;39836;52.754;6.866;2022-10-16T08:52:54;14.65;;;2.75;;
53925;SDS011;39836;52.754;6.866;2022-10-16T08:58:13;4.80;;;2.60;;
53925;SDS011;39836;52.754;6.866;2022-10-16T09:00:40;6.32;;;2.90;;
53925;SDS011;39836;52.754;6.866;2022-10-16T09:22:42;8.90;;;2.45;;
53925;SDS011;39836;52.754;6.866;2022-10-16T09:25:12;8.00;;;2.08;;
53925;SDS011;39836;52.754;6.866;2022-10-16T09:27:45;6.43;;;2.38;;
53925;SDS011;39836;52.754;6.866;2022-10-16T09:30:14;7.03;;;2.05;;
53925;SDS011;39836;52.754;6.866;2022-10-16T09:32:45;8.25;;;1.92;;
53925;SDS011;39836;52.754;6.866;2022-10-16T09:35:19;9.80;;;3.05;;
53925;SDS011;39836;52.754;6.866;2022-10-16T09:37:50;11.77;;;2.10;;
53925;SDS011;39836;52.754;6.866;2022-10-16T09:42:50;12.65;;;2.33;;
53925;SDS011;39836;52.754;6.866;2022-10-16T09:45:26;8.15;;;2.30;;
53925;SDS011;39836;52.754;6.866;2022-10-16T09:47:52;7.82;;;1.90;;
53925;SDS011;39836;52.754;6.866;2022-10-16T09:53:02;8.90;;;2.55;;
53925;SDS011;39836;52.754;6.866;2022-10-16T09:55:35;7.95;;;2.28;;
53925;SDS011;39836;52.754;6.866;2022-10-16T09:58:01;14.20;;;2.05;;
53925;SDS011;39836;52.754;6.866;2022-10-16T10:00:27;7.22;;;2.17;;
53925;SDS011;39836;52.754;6.866;2022-10-16T10:02:53;6.07;;;1.98;;
53925;SDS011;39836;52.754;6.866;2022-10-16T10:05:20;13.05;;;2.45;;
53925;SDS011;39836;52.754;6.866;2022-10-16T10:07:58;8.73;;;2.00;;
53925;SDS011;39836;52.754;6.866;2022-10-16T10:10:32;10.98;;;2.22;;
53925;SDS011;39836;52.754;6.866;2022-10-16T10:13:01;11.73;;;2.20;;
53925;SDS011;39836;52.754;6.866;2022-10-16T10:15:27;11.85;;;2.08;;
53925;SDS011;39836;52.754;6.866;2022-10-16T10:17:59;6.00;;;1.92;;
53925;SDS011;39836;52.754;6.866;2022-10-16T10:20:29;12.75;;;2.13;;
53925;SDS011;39836;52.754;6.866;2022-10-16T10:22:57;12.02;;;2.75;;
53925;SDS011;39836;52.754;6.866;2022-10-16T10:31:11;12.15;;;2.25;;
53925;SDS011;39836;52.754;6.866;2022-10-16T10:33:58;10.68;;;2.45;;
53925;SDS011;39836;52.754;6.866;2022-10-16T10:36:42;10.88;;;2.20;;
53925;SDS011;39836;52.754;6.866;2022-10-16T10:39:25;12.88;;;2.20;;
53925;SDS011;39836;52.754;6.866;2022-10-16T10:44:57;11.35;;;2.42;;
53925;SDS011;39836;52.754;6.866;2022-10-16T10:50:48;9.60;;;2.20;;
53925;SDS011;39836;52.754;6.866;2022-10-16T10:59:00;9.82;;;2.20;;
53925;SDS011;39836;52.754;6.866;2022-10-16T11:01:44;8.40;;;2.47;;
53925;SDS011;39836;52.754;6.866;2022-10-16T11:05:26;7.60;;;1.98;;
53925;SDS011;39836;52.754;6.866;2022-10-16T11:07:39;13.55;;;2.40;;
53925;SDS011;39836;52.754;6.866;2022-10-16T11:10:15;11.18;;;2.20;;
53925;SDS011;39836;52.754;6.866;2022-10-16T11:12:52;16.58;;;2.45;;
53925;SDS011;39836;52.754;6.866;2022-10-16T11:15:31;13.98;;;2.38;;
53925;SDS011;39836;52.754;6.866;2022-10-16T11:20:38;16.35;;;2.67;;
53925;SDS011;39836;52.754;6.866;2022-10-16T11:26:18;11.05;;;2.38;;
53925;SDS011;39836;52.754;6.866;2022-10-16T11:28:49;12.98;;;3.00;;
53925;SDS011;39836;52.754;6.866;2022-10-16T11:31:38;12.18;;;2.45;;
53925;SDS011;39836;52.754;6.866;2022-10-16T11:37:11;10.50;;;2.70;;
53925;SDS011;39836;52.754;6.866;2022-10-16T11:39:42;12.10;;;2.72;;
53925;SDS011;39836;52.754;6.866;2022-10-16T11:50:42;8.50;;;1.90;;
53925;SDS011;39836;52.754;6.866;2022-10-16T11:53:21;12.70;;;2.10;;
53925;SDS011;39836;52.754;6.866;2022-10-16T11:56:15;13.30;;;1.92;;
53925;SDS011;39836;52.754;6.866;2022-10-16T11:58:55;16.95;;;2.40;;
53925;SDS011;39836;52.754;6.866;2022-10-16T12:01:31;10.63;;;2.65;;
53925;SDS011;39836;52.754;6.866;2022-10-16T12:06:40;11.07;;;2.30;;
53925;SDS011;39836;52.754;6.866;2022-10-16T12:09:22;12.30;;;2.28;;
53925;SDS011;39836;52.754;6.866;2022-10-16T12:11:51;12.70;;;2.03;;
53925;SDS011;39836;52.754;6.866;2022-10-16T12:14:19;8.23;;;1.98;;
53925;SDS011;39836;52.754;6.866;2022-10-16T12:16:52;11.73;;;2.28;;
53925;SDS011;39836;52.754;6.866;2022-10-16T12:19:24;13.73;;;2.47;;
53925;SDS011;39836;52.754;6.866;2022-10-16T12:21:52;10.77;;;2.22;;
53925;SDS011;39836;52.754;6.866;2022-10-16T12:24:25;13.40;;;2.15;;
53925;SDS011;39836;52.754;6.866;2022-10-16T12:27:04;13.82;;;2.00;;
53925;SDS011;39836;52.754;6.866;2022-10-16T12:29:32;10.95;;;1.85;;
53925;SDS011;39836;52.754;6.866;2022-10-16T12:31:59;9.07;;;2.20;;
53925;SDS011;39836;52.754;6.866;2022-10-16T12:37:07;11.63;;;2.13;;
53925;SDS011;39836;52.754;6.866;2022-10-16T12:39:36;10.77;;;2.10;;
53925;SDS011;39836;52.754;6.866;2022-10-16T12:42:19;13.65;;;2.40;;
53925;SDS011;39836;52.754;6.866;2022-10-16T12:44:47;12.65;;;2.55;;
53925;SDS011;39836;52.754;6.866;2022-10-16T12:49:56;12.30;;;2.13;;
53925;SDS011;39836;52.754;6.866;2022-10-16T12:55:02;8.63;;;1.83;;
53925;SDS011;39836;52.754;6.866;2022-10-16T12:57:46;10.77;;;1.60;;
53925;SDS011;39836;52.754;6.866;2022-10-16T13:05:56;13.27;;;2.63;;
53925;SDS011;39836;52.754;6.866;2022-10-16T13:11:39;16.45;;;2.63;;
53925;SDS011;39836;52.754;6.866;2022-10-16T13:16:59;10.13;;;1.67;;
53925;SDS011;39836;52.754;6.866;2022-10-16T13:22:22;8.88;;;1.58;;
53925;SDS011;39836;52.754;6.866;2022-10-16T13:30:12;10.40;;;1.75;;
53925;SDS011;39836;52.754;6.866;2022-10-16T13:32:44;8.88;;;1.80;;
53925;SDS011;39836;52.754;6.866;2022-10-16T13:35:31;9.70;;;2.00;;
53925;SDS011;39836;52.754;6.866;2022-10-16T13:40:48;8.43;;;1.52;;
53925;SDS011;39836;52.754;6.866;2022-10-16T13:43:18;9.68;;;1.73;;
53925;SDS011;39836;52.754;6.866;2022-10-16T13:45:53;8.00;;;1.67;;
53925;SDS011;39836;52.754;6.866;2022-10-16T13:48:19;10.45;;;2.28;;
53925;SDS011;39836;52.754;6.866;2022-10-16T13:50:45;8.45;;;1.75;;
53925;SDS011;39836;52.754;6.866;2022-10-16T13:53:14;12.43;;;1.83;;
53925;SDS011;39836;52.754;6.866;2022-10-16T13:55:40;10.52;;;1.80;;
53925;SDS011;39836;52.754;6.866;2022-10-16T13:58:11;10.45;;;1.92;;
53925;SDS011;39836;52.754;6.866;2022-10-16T14:00:38;9.15;;;2.10;;
53925;SDS011;39836;52.754;6.866;2022-10-16T14:03:05;11.50;;;1.73;;
53925;SDS011;39836;52.754;6.866;2022-10-16T14:05:42;10.32;;;1.70;;
53925;SDS011;39836;52.754;6.866;2022-10-16T14:08:13;10.48;;;2.33;;
53925;SDS011;39836;52.754;6.866;2022-10-16T14:10:39;11.38;;;1.55;;
53925;SDS011;39836;52.754;6.866;2022-10-16T14:13:06;8.10;;;1.73;;
53925;SDS011;39836;52.754;6.866;2022-10-16T14:15:34;11.43;;;1.80;;
53925;SDS011;39836;52.754;6.866;2022-10-16T14:18:01;9.23;;;1.73;;
53925;SDS011;39836;52.754;6.866;2022-10-16T14:20:28;6.20;;;1.60;;
53925;SDS011;39836;52.754;6.866;2022-10-16T14:23:04;11.13;;;1.70;;
53925;SDS011;39836;52.754;6.866;2022-10-16T14:25:44;10.93;;;1.75;;
53925;SDS011;39836;52.754;6.866;2022-10-16T14:30:53;11.35;;;1.73;;
53925;SDS011;39836;52.754;6.866;2022-10-16T14:38:38;7.32;;;1.77;;
53925;SDS011;39836;52.754;6.866;2022-10-16T14:41:05;8.98;;;1.55;;
53925;SDS011;39836;52.754;6.866;2022-10-16T14:43:35;11.38;;;1.70;;
53925;SDS011;39836;52.754;6.866;2022-10-16T14:46:15;12.02;;;1.90;;
53925;SDS011;39836;52.754;6.866;2022-10-16T14:48:47;12.77;;;2.50;;
53925;SDS011;39836;52.754;6.866;2022-10-16T14:51:16;8.48;;;1.60;;
53925;SDS011;39836;52.754;6.866;2022-10-16T14:53:43;9.50;;;2.15;;
53925;SDS011;39836;52.754;6.866;2022-10-16T14:56:20;11.65;;;1.85;;
53925;SDS011;39836;52.754;6.866;2022-10-16T14:58:48;9.48;;;1.90;;
53925;SDS011;39836;52.754;6.866;2022-10-16T15:01:15;8.57;;;2.00;;
53925;SDS011;39836;52.754;6.866;2022-10-16T15:03:41;6.13;;;1.67;;
53925;SDS011;39836;52.754;6.866;2022-10-16T15:06:11;7.65;;;1.75;;
53925;SDS011;39836;52.754;6.866;2022-10-16T15:08:37;12.98;;;2.20;;
53925;SDS011;39836;52.754;6.866;2022-10-16T15:11:04;11.45;;;2.10;;
53925;SDS011;39836;52.754;6.866;2022-10-16T15:13:30;9.70;;;1.95;;
53925;SDS011;39836;52.754;6.866;2022-10-16T15:15:56;8.98;;;2.08;;
53925;SDS011;39836;52.754;6.866;2022-10-16T15:18:23;15.95;;;2.22;;
53925;SDS011;39836;52.754;6.866;2022-10-16T15:20:49;12.65;;;2.03;;
53925;SDS011;39836;52.754;6.866;2022-10-16T15:23:16;12.07;;;1.85;;
53925;SDS011;39836;52.754;6.866;2022-10-16T15:25:45;9.10;;;2.00;;
53925;SDS011;39836;52.754;6.866;2022-10-16T15:28:12;9.30;;;2.30;;
53925;SDS011;39836;52.754;6.866;2022-10-16T15:30:39;16.08;;;2.20;;
53925;SDS011;39836;52.754;6.866;2022-10-16T15:33:08;8.02;;;2.30;;
53925;SDS011;39836;52.754;6.866;2022-10-16T15:35:40;11.73;;;2.40;;
53925;SDS011;39836;52.754;6.866;2022-10-16T15:38:06;14.52;;;3.78;;
53925;SDS011;39836;52.754;6.866;2022-10-16T15:40:31;15.98;;;2.58;;
53925;SDS011;39836;52.754;6.866;2022-10-16T15:42:57;7.55;;;2.45;;
53925;SDS011;39836;52.754;6.866;2022-10-16T15:45:23;15.55;;;3.72;;
53925;SDS011;39836;52.754;6.866;2022-10-16T15:47:48;9.93;;;2.22;;
53925;SDS011;39836;52.754;6.866;2022-10-16T15:50:14;9.77;;;2.35;;
53925;SDS011;39836;52.754;6.866;2022-10-16T15:52:41;7.75;;;1.92;;
53925;SDS011;39836;52.754;6.866;2022-10-16T15:55:10;9.55;;;2.55;;
53925;SDS011;39836;52.754;6.866;2022-10-16T15:57:38;10.55;;;2.50;;
53925;SDS011;39836;52.754;6.866;2022-10-16T16:00:10;10.45;;;2.58;;
53925;SDS011;39836;52.754;6.866;2022-10-16T16:02:41;8.43;;;2.17;;
53925;SDS011;39836;52.754;6.866;2022-10-16T16:05:09;8.50;;;2.15;;
53925;SDS011;39836;52.754;6.866;2022-10-16T16:07:36;7.72;;;2.38;;
53925;SDS011;39836;52.754;6.866;2022-10-16T16:10:04;8.32;;;2.45;;
53925;SDS011;39836;52.754;6.866;2022-10-16T16:12:32;8.90;;;2.03;;
53925;SDS011;39836;52.754;6.866;2022-10-16T16:14:58;8.10;;;2.20;;
53925;SDS011;39836;52.754;6.866;2022-10-16T16:17:24;9.45;;;1.95;;
53925;SDS011;39836;52.754;6.866;2022-10-16T16:19:50;7.93;;;2.15;;
53925;SDS011;39836;52.754;6.866;2022-10-16T16:22:16;9.65;;;2.40;;
53925;SDS011;39836;52.754;6.866;2022-10-16T16:24:42;11.43;;;2.58;;
53925;SDS011;39836;52.754;6.866;2022-10-16T16:27:07;8.13;;;1.95;;
53925;SDS011;39836;52.754;6.866;2022-10-16T16:29:33;6.95;;;2.78;;
53925;SDS011;39836;52.754;6.866;2022-10-16T16:31:59;7.93;;;1.85;;
53925;SDS011;39836;52.754;6.866;2022-10-16T16:34:26;8.32;;;2.08;;
53925;SDS011;39836;52.754;6.866;2022-10-16T16:36:53;6.78;;;1.83;;
53925;SDS011;39836;52.754;6.866;2022-10-16T16:39:19;10.13;;;2.60;;
53925;SDS011;39836;52.754;6.866;2022-10-16T16:41:45;11.15;;;2.78;;
53925;SDS011;39836;52.754;6.866;2022-10-16T16:44:11;21.67;;;9.70;;
53925;SDS011;39836;52.754;6.866;2022-10-16T16:46:38;39.25;;;22.05;;
53925;SDS011;39836;52.754;6.866;2022-10-16T16:49:05;47.80;;;24.20;;
53925;SDS011;39836;52.754;6.866;2022-10-16T16:51:31;34.08;;;18.33;;
53925;SDS011;39836;52.754;6.866;2022-10-16T16:53:58;39.67;;;20.50;;
53925;SDS011;39836;52.754;6.866;2022-10-16T16:56:24;32.08;;;16.48;;
53925;SDS011;39836;52.754;6.866;2022-10-16T16:58:51;30.83;;;13.18;;
53925;SDS011;39836;52.754;6.866;2022-10-16T17:01:19;26.40;;;10.95;;
53925;SDS011;39836;52.754;6.866;2022-10-16T17:03:45;20.70;;;6.55;;
53925;SDS011;39836;52.754;6.866;2022-10-16T17:06:14;10.75;;;3.88;;